sensor_id;sensor_type;location;lat;lon;timestamp;P1;durP1;ratioP1;P2;durP2;ratioP2
38182;SDS011;23991;52.430;10.586;2023-09-19T00:07:34;2.60;;;1.02;;
38182;SDS011;23991;52.430;10.586;2023-09-19T00:17:56;1.98;;;1.13;;
38182;SDS011;23991;52.430;10.586;2023-09-19T00:20:22;1.95;;;1.15;;
38182;SDS011;23991;52.430;10.586;2023-09-19T00:22:49;3.63;;;1.20;;
38182;SDS011;23991;52.430;10.586;2023-09-19T00:25:19;2.20;;;1.10;;
38182;SDS011;23991;52.430;10.586;2023-09-19T00:27:46;1.83;;;1.05;;
38182;SDS011;23991;52.430;10.586;2023-09-19T00:30:13;4.38;;;1.20;;
38182;SDS011;23991;52.430;10.586;2023-09-19T00:32:45;2.17;;;0.93;;
38182;SDS011;23991;52.430;10.586;2023-09-19T00:35:17;3.10;;;1.00;;
38182;SDS011;23991;52.430;10.586;2023-09-19T00:37:44;1.27;;;0.93;;
38182;SDS011;23991;52.430;10.586;2023-09-19T00:40:13;1.20;;;0.95;;
38182;SDS011;23991;52.430;10.586;2023-09-19T00:42:41;2.40;;;1.23;;
38182;SDS011;23991;52.430;10.586;2023-09-19T00:45:07;2.83;;;1.38;;
38182;SDS011;23991;52.430;10.586;2023-09-19T00:47:47;1.08;;;0.90;;
38182;SDS011;23991;52.430;10.586;2023-09-19T00:50:15;3.83;;;1.25;;
38182;SDS011;23991;52.430;10.586;2023-09-19T00:52:44;1.55;;;1.10;;
38182;SDS011;23991;52.430;10.586;2023-09-19T00:55:12;3.42;;;1.10;;
38182;SDS011;23991;52.430;10.586;2023-09-19T02:12:27;4.13;;;2.05;;
38182;SDS011;23991;52.430;10.586;2023-09-19T02:14:53;3.85;;;1.70;;
38182;SDS011;23991;52.430;10.586;2023-09-19T03:18:18;5.88;;;2.63;;
38182;SDS011;23991;52.430;10.586;2023-09-19T03:21:44;3.30;;;2.40;;
38182;SDS011;23991;52.430;10.586;2023-09-19T03:41:55;4.90;;;2.30;;
38182;SDS011;23991;52.430;10.586;2023-09-19T03:45:08;6.93;;;3.13;;
38182;SDS011;23991;52.430;10.586;2023-09-19T04:02:15;5.05;;;2.72;;
38182;SDS011;23991;52.430;10.586;2023-09-19T04:04:50;5.70;;;3.03;;
38182;SDS011;23991;52.430;10.586;2023-09-19T04:07:20;7.80;;;2.65;;
38182;SDS011;23991;52.430;10.586;2023-09-19T04:09:47;7.15;;;3.45;;
38182;SDS011;23991;52.430;10.586;2023-09-19T04:12:14;8.93;;;3.38;;
38182;SDS011;23991;52.430;10.586;2023-09-19T04:14:42;8.15;;;3.42;;
38182;SDS011;23991;52.430;10.586;2023-09-19T04:17:07;8.52;;;3.15;;
38182;SDS011;23991;52.430;10.586;2023-09-19T04:19:33;10.35;;;3.63;;
38182;SDS011;23991;52.430;10.586;2023-09-19T04:21:59;5.70;;;3.53;;
38182;SDS011;23991;52.430;10.586;2023-09-19T04:24:24;7.47;;;3.58;;
38182;SDS011;23991;52.430;10.586;2023-09-19T04:26:50;10.65;;;3.55;;
38182;SDS011;23991;52.430;10.586;2023-09-19T04:29:17;6.57;;;3.55;;
38182;SDS011;23991;52.430;10.586;2023-09-19T04:31:44;6.90;;;3.10;;
38182;SDS011;23991;52.430;10.586;2023-09-19T04:34:11;10.32;;;4.18;;
38182;SDS011;23991;52.430;10.586;2023-09-19T04:39:07;9.73;;;3.47;;
38182;SDS011;23991;52.430;10.586;2023-09-19T04:41:34;8.52;;;3.20;;
38182;SDS011;23991;52.430;10.586;2023-09-19T04:44:00;6.50;;;2.90;;
38182;SDS011;23991;52.430;10.586;2023-09-19T04:46:26;8.57;;;3.20;;
38182;SDS011;23991;52.430;10.586;2023-09-19T04:48:51;8.80;;;3.63;;
38182;SDS011;23991;52.430;10.586;2023-09-19T04:51:17;8.25;;;3.17;;
38182;SDS011;23991;52.430;10.586;2023-09-19T04:53:45;6.43;;;2.85;;
38182;SDS011;23991;52.430;10.586;2023-09-19T04:56:11;8.13;;;3.38;;
38182;SDS011;23991;52.430;10.586;2023-09-19T04:58:38;8.15;;;2.97;;
38182;SDS011;23991;52.430;10.586;2023-09-19T05:01:10;6.35;;;3.40;;
38182;SDS011;23991;52.430;10.586;2023-09-19T05:03:37;8.95;;;3.30;;
38182;SDS011;23991;52.430;10.586;2023-09-19T05:06:03;9.40;;;3.55;;
38182;SDS011;23991;52.430;10.586;2023-09-19T05:08:30;8.13;;;3.80;;
38182;SDS011;23991;52.430;10.586;2023-09-19T05:10:56;12.48;;;4.97;;
38182;SDS011;23991;52.430;10.586;2023-09-19T05:13:21;5.45;;;3.80;;
38182;SDS011;23991;52.430;10.586;2023-09-19T05:15:50;9.65;;;4.35;;
38182;SDS011;23991;52.430;10.586;2023-09-19T05:18:16;7.22;;;3.92;;
38182;SDS011;23991;52.430;10.586;2023-09-19T05:20:41;12.50;;;4.30;;
38182;SDS011;23991;52.430;10.586;2023-09-19T05:23:08;6.85;;;4.03;;
38182;SDS011;23991;52.430;10.586;2023-09-19T05:25:37;9.52;;;4.00;;
38182;SDS011;23991;52.430;10.586;2023-09-19T05:28:05;7.60;;;4.05;;
38182;SDS011;23991;52.430;10.586;2023-09-19T05:30:33;6.82;;;4.57;;
38182;SDS011;23991;52.430;10.586;2023-09-19T05:33:00;8.23;;;4.90;;
38182;SDS011;23991;52.430;10.586;2023-09-19T05:35:30;11.60;;;4.60;;
38182;SDS011;23991;52.430;10.586;2023-09-19T05:37:56;9.60;;;4.38;;
38182;SDS011;23991;52.430;10.586;2023-09-19T05:40:23;15.27;;;5.05;;
38182;SDS011;23991;52.430;10.586;2023-09-19T05:42:49;9.18;;;4.38;;
38182;SDS011;23991;52.430;10.586;2023-09-19T05:45:16;9.57;;;5.05;;
38182;SDS011;23991;52.430;10.586;2023-09-19T05:47:50;12.73;;;4.70;;
38182;SDS011;23991;52.430;10.586;2023-09-19T05:50:20;9.57;;;4.47;;
38182;SDS011;23991;52.430;10.586;2023-09-19T05:52:53;10.07;;;4.80;;
38182;SDS011;23991;52.430;10.586;2023-09-19T05:55:20;12.18;;;4.68;;
38182;SDS011;23991;52.430;10.586;2023-09-19T05:57:52;8.30;;;4.30;;
38182;SDS011;23991;52.430;10.586;2023-09-19T06:00:23;9.03;;;3.60;;
38182;SDS011;23991;52.430;10.586;2023-09-19T06:02:53;7.47;;;4.28;;
38182;SDS011;23991;52.430;10.586;2023-09-19T06:05:20;7.88;;;4.15;;
38182;SDS011;23991;52.430;10.586;2023-09-19T06:07:46;8.35;;;4.10;;
38182;SDS011;23991;52.430;10.586;2023-09-19T06:10:12;8.75;;;4.13;;
38182;SDS011;23991;52.430;10.586;2023-09-19T06:12:38;8.73;;;4.43;;
38182;SDS011;23991;52.430;10.586;2023-09-19T06:15:04;12.02;;;4.10;;
38182;SDS011;23991;52.430;10.586;2023-09-19T06:17:31;10.65;;;3.78;;
38182;SDS011;23991;52.430;10.586;2023-09-19T06:19:57;7.50;;;3.88;;
38182;SDS011;23991;52.430;10.586;2023-09-19T06:22:22;9.75;;;4.30;;
38182;SDS011;23991;52.430;10.586;2023-09-19T06:24:49;7.75;;;4.18;;
38182;SDS011;23991;52.430;10.586;2023-09-19T06:27:15;9.02;;;3.80;;
38182;SDS011;23991;52.430;10.586;2023-09-19T06:29:40;9.18;;;3.75;;
38182;SDS011;23991;52.430;10.586;2023-09-19T06:32:10;13.80;;;4.57;;
38182;SDS011;23991;52.430;10.586;2023-09-19T06:34:36;8.17;;;3.70;;
38182;SDS011;23991;52.430;10.586;2023-09-19T06:37:03;8.85;;;3.83;;
38182;SDS011;23991;52.430;10.586;2023-09-19T06:39:31;9.07;;;3.75;;
38182;SDS011;23991;52.430;10.586;2023-09-19T06:41:56;9.10;;;3.30;;
38182;SDS011;23991;52.430;10.586;2023-09-19T06:44:23;9.77;;;3.67;;
38182;SDS011;23991;52.430;10.586;2023-09-19T06:46:49;10.15;;;3.75;;
38182;SDS011;23991;52.430;10.586;2023-09-19T06:49:16;9.00;;;3.70;;
38182;SDS011;23991;52.430;10.586;2023-09-19T06:51:42;8.32;;;3.60;;
38182;SDS011;23991;52.430;10.586;2023-09-19T06:54:09;10.68;;;3.80;;
38182;SDS011;23991;52.430;10.586;2023-09-19T06:56:35;12.63;;;3.60;;
38182;SDS011;23991;52.430;10.586;2023-09-19T06:59:01;12.27;;;4.00;;
38182;SDS011;23991;52.430;10.586;2023-09-19T07:01:28;9.20;;;3.47;;
38182;SDS011;23991;52.430;10.586;2023-09-19T07:03:54;11.63;;;3.78;;
38182;SDS011;23991;52.430;10.586;2023-09-19T07:06:19;10.48;;;3.97;;
38182;SDS011;23991;52.430;10.586;2023-09-19T07:08:45;8.13;;;3.50;;
38182;SDS011;23991;52.430;10.586;2023-09-19T07:11:11;10.75;;;3.42;;
38182;SDS011;23991;52.430;10.586;2023-09-19T07:13:37;10.38;;;4.30;;
38182;SDS011;23991;52.430;10.586;2023-09-19T07:16:04;7.65;;;2.80;;
38182;SDS011;23991;52.430;10.586;2023-09-19T07:18:30;10.00;;;3.55;;
38182;SDS011;23991;52.430;10.586;2023-09-19T07:20:57;8.40;;;3.40;;
38182;SDS011;23991;52.430;10.586;2023-09-19T07:23:30;9.18;;;3.35;;
38182;SDS011;23991;52.430;10.586;2023-09-19T07:26:00;12.13;;;3.72;;
38182;SDS011;23991;52.430;10.586;2023-09-19T07:28:26;10.13;;;3.40;;
38182;SDS011;23991;52.430;10.586;2023-09-19T07:30:53;10.07;;;3.58;;
38182;SDS011;23991;52.430;10.586;2023-09-19T07:33:19;10.70;;;3.55;;
38182;SDS011;23991;52.430;10.586;2023-09-19T07:35:46;10.73;;;3.40;;
38182;SDS011;23991;52.430;10.586;2023-09-19T07:38:16;12.48;;;3.55;;
38182;SDS011;23991;52.430;10.586;2023-09-19T07:40:43;12.32;;;3.65;;
38182;SDS011;23991;52.430;10.586;2023-09-19T07:43:09;12.35;;;3.30;;
38182;SDS011;23991;52.430;10.586;2023-09-19T07:45:35;11.40;;;3.45;;
38182;SDS011;23991;52.430;10.586;2023-09-19T07:48:04;13.52;;;3.40;;
38182;SDS011;23991;52.430;10.586;2023-09-19T07:50:33;7.82;;;3.13;;
38182;SDS011;23991;52.430;10.586;2023-09-19T07:53:02;12.65;;;3.58;;
38182;SDS011;23991;52.430;10.586;2023-09-19T07:55:30;8.73;;;3.22;;
38182;SDS011;23991;52.430;10.586;2023-09-19T07:57:56;9.20;;;2.70;;
38182;SDS011;23991;52.430;10.586;2023-09-19T08:00:23;11.10;;;3.10;;
38182;SDS011;23991;52.430;10.586;2023-09-19T08:02:48;9.20;;;2.90;;
38182;SDS011;23991;52.430;10.586;2023-09-19T08:05:14;11.60;;;3.13;;
38182;SDS011;23991;52.430;10.586;2023-09-19T08:07:41;9.93;;;3.13;;
38182;SDS011;23991;52.430;10.586;2023-09-19T08:10:11;10.05;;;2.92;;
38182;SDS011;23991;52.430;10.586;2023-09-19T08:12:41;12.88;;;4.25;;
38182;SDS011;23991;52.430;10.586;2023-09-19T08:15:14;10.07;;;2.72;;
38182;SDS011;23991;52.430;10.586;2023-09-19T08:17:45;9.77;;;2.65;;
38182;SDS011;23991;52.430;10.586;2023-09-19T08:20:12;6.60;;;2.20;;
38182;SDS011;23991;52.430;10.586;2023-09-19T08:22:51;14.73;;;3.00;;
38182;SDS011;23991;52.430;10.586;2023-09-19T08:25:21;9.63;;;2.43;;
38182;SDS011;23991;52.430;10.586;2023-09-19T08:27:48;11.82;;;2.97;;
38182;SDS011;23991;52.430;10.586;2023-09-19T08:30:16;8.18;;;2.25;;
38182;SDS011;23991;52.430;10.586;2023-09-19T08:32:49;9.63;;;3.03;;
38182;SDS011;23991;52.430;10.586;2023-09-19T08:35:16;6.10;;;2.28;;
38182;SDS011;23991;52.430;10.586;2023-09-19T08:37:42;10.52;;;2.53;;
38182;SDS011;23991;52.430;10.586;2023-09-19T08:40:10;10.85;;;3.22;;
38182;SDS011;23991;52.430;10.586;2023-09-19T08:42:47;7.35;;;2.63;;
38182;SDS011;23991;52.430;10.586;2023-09-19T08:45:19;9.00;;;2.45;;
38182;SDS011;23991;52.430;10.586;2023-09-19T08:47:56;8.10;;;2.78;;
38182;SDS011;23991;52.430;10.586;2023-09-19T08:53:26;6.93;;;2.83;;
38182;SDS011;23991;52.430;10.586;2023-09-19T08:55:57;4.97;;;2.00;;
38182;SDS011;23991;52.430;10.586;2023-09-19T08:58:27;7.97;;;2.28;;
38182;SDS011;23991;52.430;10.586;2023-09-19T09:01:00;8.23;;;2.33;;
38182;SDS011;23991;52.430;10.586;2023-09-19T09:03:26;8.05;;;2.50;;
38182;SDS011;23991;52.430;10.586;2023-09-19T09:05:57;9.25;;;2.42;;
38182;SDS011;23991;52.430;10.586;2023-09-19T09:08:23;6.03;;;2.53;;
38182;SDS011;23991;52.430;10.586;2023-09-19T09:10:50;8.80;;;2.70;;
38182;SDS011;23991;52.430;10.586;2023-09-19T09:13:16;8.30;;;2.35;;
38182;SDS011;23991;52.430;10.586;2023-09-19T09:15:42;9.13;;;2.60;;
38182;SDS011;23991;52.430;10.586;2023-09-19T09:18:10;7.57;;;3.05;;
38182;SDS011;23991;52.430;10.586;2023-09-19T09:20:35;5.60;;;2.30;;
38182;SDS011;23991;52.430;10.586;2023-09-19T09:23:01;6.93;;;2.70;;
38182;SDS011;23991;52.430;10.586;2023-09-19T09:25:47;5.50;;;2.30;;
38182;SDS011;23991;52.430;10.586;2023-09-19T09:28:19;8.32;;;2.53;;
38182;SDS011;23991;52.430;10.586;2023-09-19T09:30:46;6.03;;;2.10;;
38182;SDS011;23991;52.430;10.586;2023-09-19T09:33:12;7.15;;;2.25;;
38182;SDS011;23991;52.430;10.586;2023-09-19T09:38:25;5.57;;;1.88;;
38182;SDS011;23991;52.430;10.586;2023-09-19T09:40:53;6.22;;;2.42;;
38182;SDS011;23991;52.430;10.586;2023-09-19T09:48:37;6.50;;;2.00;;
38182;SDS011;23991;52.430;10.586;2023-09-19T09:51:04;9.10;;;2.00;;
38182;SDS011;23991;52.430;10.586;2023-09-19T09:53:32;5.95;;;1.98;;
38182;SDS011;23991;52.430;10.586;2023-09-19T09:58:34;8.38;;;2.50;;
38182;SDS011;23991;52.430;10.586;2023-09-19T10:01:01;7.38;;;2.45;;
38182;SDS011;23991;52.430;10.586;2023-09-19T10:03:37;8.00;;;2.15;;
38182;SDS011;23991;52.430;10.586;2023-09-19T10:06:10;6.13;;;2.38;;
38182;SDS011;23991;52.430;10.586;2023-09-19T10:11:46;6.18;;;2.40;;
38182;SDS011;23991;52.430;10.586;2023-09-19T10:14:19;7.43;;;2.17;;
38182;SDS011;23991;52.430;10.586;2023-09-19T10:16:49;7.22;;;2.20;;
38182;SDS011;23991;52.430;10.586;2023-09-19T10:19:29;7.07;;;2.58;;
38182;SDS011;23991;52.430;10.586;2023-09-19T10:22:01;7.70;;;2.70;;
38182;SDS011;23991;52.430;10.586;2023-09-19T10:24:28;8.93;;;2.50;;
38182;SDS011;23991;52.430;10.586;2023-09-19T10:26:57;5.97;;;2.47;;
38182;SDS011;23991;52.430;10.586;2023-09-19T10:29:29;6.15;;;2.33;;
38182;SDS011;23991;52.430;10.586;2023-09-19T10:32:00;6.70;;;2.20;;
38182;SDS011;23991;52.430;10.586;2023-09-19T10:34:31;6.30;;;2.58;;
38182;SDS011;23991;52.430;10.586;2023-09-19T10:37:00;6.45;;;2.22;;
38182;SDS011;23991;52.430;10.586;2023-09-19T10:39:34;6.68;;;2.17;;
38182;SDS011;23991;52.430;10.586;2023-09-19T10:42:04;6.50;;;2.13;;
38182;SDS011;23991;52.430;10.586;2023-09-19T10:44:34;9.48;;;2.35;;
38182;SDS011;23991;52.430;10.586;2023-09-19T10:47:08;6.93;;;1.95;;
38182;SDS011;23991;52.430;10.586;2023-09-19T10:49:34;6.85;;;2.25;;
38182;SDS011;23991;52.430;10.586;2023-09-19T10:52:00;7.00;;;2.50;;
38182;SDS011;23991;52.430;10.586;2023-09-19T10:54:29;7.95;;;2.05;;
38182;SDS011;23991;52.430;10.586;2023-09-19T10:57:02;8.70;;;2.40;;
38182;SDS011;23991;52.430;10.586;2023-09-19T10:59:30;9.90;;;2.10;;
38182;SDS011;23991;52.430;10.586;2023-09-19T11:02:18;9.18;;;2.17;;
38182;SDS011;23991;52.430;10.586;2023-09-19T11:04:43;9.57;;;2.60;;
38182;SDS011;23991;52.430;10.586;2023-09-19T11:07:13;4.90;;;1.90;;
38182;SDS011;23991;52.430;10.586;2023-09-19T11:14:55;8.52;;;2.60;;
38182;SDS011;23991;52.430;10.586;2023-09-19T11:30:42;4.82;;;2.42;;
38182;SDS011;23991;52.430;10.586;2023-09-19T11:47:08;5.70;;;2.17;;
38182;SDS011;23991;52.430;10.586;2023-09-19T11:49:28;7.88;;;2.63;;
38182;SDS011;23991;52.430;10.586;2023-09-19T11:52:02;7.55;;;2.30;;
38182;SDS011;23991;52.430;10.586;2023-09-19T11:54:33;5.47;;;2.45;;
38182;SDS011;23991;52.430;10.586;2023-09-19T11:57:01;8.43;;;2.40;;
38182;SDS011;23991;52.430;10.586;2023-09-19T11:59:28;5.45;;;2.53;;
38182;SDS011;23991;52.430;10.586;2023-09-19T12:01:56;7.15;;;2.83;;
38182;SDS011;23991;52.430;10.586;2023-09-19T12:04:35;7.38;;;2.80;;
38182;SDS011;23991;52.430;10.586;2023-09-19T12:07:03;6.32;;;2.05;;
38182;SDS011;23991;52.430;10.586;2023-09-19T12:09:36;7.93;;;2.15;;
38182;SDS011;23991;52.430;10.586;2023-09-19T12:12:04;5.97;;;2.55;;
38182;SDS011;23991;52.430;10.586;2023-09-19T12:14:30;7.20;;;2.88;;
38182;SDS011;23991;52.430;10.586;2023-09-19T12:16:56;6.05;;;2.65;;
38182;SDS011;23991;52.430;10.586;2023-09-19T12:19:25;10.90;;;2.70;;
38182;SDS011;23991;52.430;10.586;2023-09-19T12:22:09;9.95;;;2.40;;
38182;SDS011;23991;52.430;10.586;2023-09-19T12:24:35;7.50;;;2.65;;
38182;SDS011;23991;52.430;10.586;2023-09-19T12:27:06;5.35;;;2.85;;
38182;SDS011;23991;52.430;10.586;2023-09-19T12:29:50;7.22;;;2.22;;
38182;SDS011;23991;52.430;10.586;2023-09-19T12:32:36;6.22;;;2.50;;
38182;SDS011;23991;52.430;10.586;2023-09-19T12:35:05;6.18;;;2.78;;
38182;SDS011;23991;52.430;10.586;2023-09-19T12:37:35;5.70;;;2.78;;
38182;SDS011;23991;52.430;10.586;2023-09-19T12:40:05;5.55;;;2.15;;
38182;SDS011;23991;52.430;10.586;2023-09-19T12:42:47;5.93;;;2.17;;
38182;SDS011;23991;52.430;10.586;2023-09-19T12:45:17;8.77;;;2.75;;
38182;SDS011;23991;52.430;10.586;2023-09-19T12:48:29;7.57;;;2.63;;
38182;SDS011;23991;52.430;10.586;2023-09-19T12:50:59;6.70;;;2.80;;
38182;SDS011;23991;52.430;10.586;2023-09-19T12:53:42;6.07;;;2.35;;
38182;SDS011;23991;52.430;10.586;2023-09-19T12:56:12;10.60;;;2.95;;
38182;SDS011;23991;52.430;10.586;2023-09-19T12:58:55;5.53;;;2.65;;
38182;SDS011;23991;52.430;10.586;2023-09-19T13:01:27;6.85;;;3.00;;
38182;SDS011;23991;52.430;10.586;2023-09-19T13:06:39;9.68;;;2.80;;
38182;SDS011;23991;52.430;10.586;2023-09-19T13:09:08;5.90;;;2.42;;
38182;SDS011;23991;52.430;10.586;2023-09-19T13:11:38;6.00;;;2.53;;
38182;SDS011;23991;52.430;10.586;2023-09-19T13:14:22;6.18;;;2.40;;
38182;SDS011;23991;52.430;10.586;2023-09-19T13:16:53;4.55;;;2.38;;
38182;SDS011;23991;52.430;10.586;2023-09-19T13:25:19;5.82;;;2.65;;
38182;SDS011;23991;52.430;10.586;2023-09-19T13:27:49;8.40;;;2.53;;
38182;SDS011;23991;52.430;10.586;2023-09-19T13:30:17;6.10;;;2.60;;
38182;SDS011;23991;52.430;10.586;2023-09-19T13:32:44;7.30;;;2.88;;
38182;SDS011;23991;52.430;10.586;2023-09-19T13:35:12;7.10;;;2.42;;
38182;SDS011;23991;52.430;10.586;2023-09-19T13:37:39;5.40;;;2.40;;
38182;SDS011;23991;52.430;10.586;2023-09-19T13:40:12;6.13;;;2.30;;
38182;SDS011;23991;52.430;10.586;2023-09-19T13:42:39;7.50;;;2.20;;
38182;SDS011;23991;52.430;10.586;2023-09-19T13:45:06;5.93;;;2.53;;
38182;SDS011;23991;52.430;10.586;2023-09-19T13:47:33;9.18;;;2.47;;
38182;SDS011;23991;52.430;10.586;2023-09-19T13:50:01;7.18;;;2.60;;
38182;SDS011;23991;52.430;10.586;2023-09-19T13:52:29;6.75;;;2.83;;
38182;SDS011;23991;52.430;10.586;2023-09-19T13:54:55;8.77;;;3.13;;
38182;SDS011;23991;52.430;10.586;2023-09-19T13:57:22;5.50;;;2.25;;
38182;SDS011;23991;52.430;10.586;2023-09-19T13:59:51;6.82;;;2.70;;
38182;SDS011;23991;52.430;10.586;2023-09-19T14:02:21;8.30;;;2.90;;
38182;SDS011;23991;52.430;10.586;2023-09-19T14:07:17;4.65;;;2.28;;
38182;SDS011;23991;52.430;10.586;2023-09-19T14:09:43;6.13;;;2.60;;
38182;SDS011;23991;52.430;10.586;2023-09-19T14:12:10;6.20;;;2.38;;
38182;SDS011;23991;52.430;10.586;2023-09-19T14:14:36;6.90;;;2.78;;
38182;SDS011;23991;52.430;10.586;2023-09-19T14:17:02;6.88;;;2.70;;
38182;SDS011;23991;52.430;10.586;2023-09-19T14:19:29;6.85;;;2.55;;
38182;SDS011;23991;52.430;10.586;2023-09-19T14:21:55;5.72;;;2.53;;
38182;SDS011;23991;52.430;10.586;2023-09-19T14:24:21;11.32;;;2.55;;
38182;SDS011;23991;52.430;10.586;2023-09-19T14:26:47;3.97;;;2.25;;
38182;SDS011;23991;52.430;10.586;2023-09-19T14:29:14;6.32;;;2.67;;
38182;SDS011;23991;52.430;10.586;2023-09-19T14:31:40;5.00;;;2.42;;
38182;SDS011;23991;52.430;10.586;2023-09-19T14:34:07;5.32;;;2.28;;
38182;SDS011;23991;52.430;10.586;2023-09-19T14:36:35;6.60;;;2.27;;
38182;SDS011;23991;52.430;10.586;2023-09-19T14:39:01;6.60;;;2.47;;
38182;SDS011;23991;52.430;10.586;2023-09-19T14:41:27;7.85;;;2.38;;
38182;SDS011;23991;52.430;10.586;2023-09-19T14:43:53;5.18;;;2.20;;
38182;SDS011;23991;52.430;10.586;2023-09-19T14:46:20;8.77;;;3.08;;
38182;SDS011;23991;52.430;10.586;2023-09-19T14:48:46;8.25;;;2.40;;
38182;SDS011;23991;52.430;10.586;2023-09-19T14:51:12;6.22;;;2.50;;
38182;SDS011;23991;52.430;10.586;2023-09-19T14:53:39;6.13;;;2.45;;
38182;SDS011;23991;52.430;10.586;2023-09-19T14:56:07;7.30;;;2.63;;
38182;SDS011;23991;52.430;10.586;2023-09-19T14:58:33;7.65;;;2.53;;
38182;SDS011;23991;52.430;10.586;2023-09-19T15:01:06;7.07;;;2.50;;
38182;SDS011;23991;52.430;10.586;2023-09-19T15:03:36;8.43;;;2.70;;
38182;SDS011;23991;52.430;10.586;2023-09-19T15:06:05;11.63;;;3.05;;
38182;SDS011;23991;52.430;10.586;2023-09-19T15:08:35;7.60;;;2.38;;
38182;SDS011;23991;52.430;10.586;2023-09-19T15:11:03;7.35;;;2.75;;
38182;SDS011;23991;52.430;10.586;2023-09-19T15:13:33;7.13;;;3.00;;
38182;SDS011;23991;52.430;10.586;2023-09-19T15:18:29;4.20;;;2.42;;
38182;SDS011;23991;52.430;10.586;2023-09-19T15:21:05;6.72;;;2.42;;
38182;SDS011;23991;52.430;10.586;2023-09-19T15:23:33;5.97;;;2.67;;
38182;SDS011;23991;52.430;10.586;2023-09-19T15:26:06;5.30;;;2.50;;
38182;SDS011;23991;52.430;10.586;2023-09-19T15:28:39;7.40;;;2.70;;
38182;SDS011;23991;52.430;10.586;2023-09-19T15:31:06;5.82;;;2.38;;
38182;SDS011;23991;52.430;10.586;2023-09-19T15:33:33;6.53;;;2.78;;
38182;SDS011;23991;52.430;10.586;2023-09-19T15:38:32;6.18;;;2.30;;
38182;SDS011;23991;52.430;10.586;2023-09-19T15:41:22;7.40;;;2.80;;
38182;SDS011;23991;52.430;10.586;2023-09-19T15:43:52;6.60;;;2.70;;
38182;SDS011;23991;52.430;10.586;2023-09-19T15:46:19;8.98;;;2.55;;
38182;SDS011;23991;52.430;10.586;2023-09-19T15:48:45;7.55;;;2.75;;
38182;SDS011;23991;52.430;10.586;2023-09-19T15:51:11;5.72;;;2.63;;
38182;SDS011;23991;52.430;10.586;2023-09-19T15:53:47;5.90;;;2.53;;
38182;SDS011;23991;52.430;10.586;2023-09-19T15:56:16;7.30;;;3.00;;
38182;SDS011;23991;52.430;10.586;2023-09-19T15:58:46;6.53;;;2.40;;
38182;SDS011;23991;52.430;10.586;2023-09-19T16:01:16;5.93;;;2.67;;
38182;SDS011;23991;52.430;10.586;2023-09-19T16:03:43;6.20;;;2.35;;
38182;SDS011;23991;52.430;10.586;2023-09-19T16:06:12;7.60;;;2.40;;
38182;SDS011;23991;52.430;10.586;2023-09-19T16:08:46;7.90;;;2.70;;
38182;SDS011;23991;52.430;10.586;2023-09-19T16:11:13;5.43;;;2.65;;
38182;SDS011;23991;52.430;10.586;2023-09-19T16:13:39;8.50;;;2.60;;
38182;SDS011;23991;52.430;10.586;2023-09-19T16:16:06;7.80;;;2.60;;
38182;SDS011;23991;52.430;10.586;2023-09-19T16:18:33;5.32;;;2.58;;
38182;SDS011;23991;52.430;10.586;2023-09-19T16:21:02;5.63;;;2.30;;
38182;SDS011;23991;52.430;10.586;2023-09-19T16:23:32;4.70;;;2.53;;
38182;SDS011;23991;52.430;10.586;2023-09-19T16:26:07;7.10;;;2.60;;
38182;SDS011;23991;52.430;10.586;2023-09-19T16:28:35;7.38;;;2.63;;
38182;SDS011;23991;52.430;10.586;2023-09-19T16:31:01;5.90;;;2.45;;
38182;SDS011;23991;52.430;10.586;2023-09-19T16:33:28;6.45;;;2.30;;
38182;SDS011;23991;52.430;10.586;2023-09-19T16:35:56;6.10;;;2.55;;
38182;SDS011;23991;52.430;10.586;2023-09-19T16:38:23;5.35;;;2.42;;
38182;SDS011;23991;52.430;10.586;2023-09-19T16:40:56;6.43;;;2.30;;
38182;SDS011;23991;52.430;10.586;2023-09-19T16:43:23;5.70;;;2.63;;
38182;SDS011;23991;52.430;10.586;2023-09-19T16:45:54;7.80;;;2.40;;
38182;SDS011;23991;52.430;10.586;2023-09-19T16:48:21;6.72;;;2.40;;
38182;SDS011;23991;52.430;10.586;2023-09-19T16:50:48;5.43;;;2.42;;
38182;SDS011;23991;52.430;10.586;2023-09-19T16:53:15;6.88;;;2.15;;
38182;SDS011;23991;52.430;10.586;2023-09-19T16:55:47;5.03;;;2.03;;
38182;SDS011;23991;52.430;10.586;2023-09-19T16:58:14;6.75;;;2.08;;
38182;SDS011;23991;52.430;10.586;2023-09-19T17:00:40;4.30;;;1.85;;
38182;SDS011;23991;52.430;10.586;2023-09-19T17:03:08;6.85;;;2.20;;
38182;SDS011;23991;52.430;10.586;2023-09-19T17:05:36;6.68;;;2.25;;
38182;SDS011;23991;52.430;10.586;2023-09-19T17:08:04;4.18;;;2.15;;
38182;SDS011;23991;52.430;10.586;2023-09-19T17:10:34;4.57;;;1.67;;
38182;SDS011;23991;52.430;10.586;2023-09-19T17:13:00;6.88;;;2.28;;
38182;SDS011;23991;52.430;10.586;2023-09-19T17:15:30;7.15;;;2.15;;
38182;SDS011;23991;52.430;10.586;2023-09-19T17:17:57;6.47;;;2.10;;
38182;SDS011;23991;52.430;10.586;2023-09-19T17:20:23;6.88;;;2.28;;
38182;SDS011;23991;52.430;10.586;2023-09-19T17:22:49;4.18;;;1.80;;
38182;SDS011;23991;52.430;10.586;2023-09-19T17:25:15;4.38;;;2.13;;
38182;SDS011;23991;52.430;10.586;2023-09-19T17:27:41;4.63;;;2.28;;
38182;SDS011;23991;52.430;10.586;2023-09-19T17:30:08;7.30;;;2.17;;
38182;SDS011;23991;52.430;10.586;2023-09-19T17:32:42;6.93;;;2.17;;
38182;SDS011;23991;52.430;10.586;2023-09-19T17:35:11;4.95;;;1.95;;
38182;SDS011;23991;52.430;10.586;2023-09-19T17:37:43;5.70;;;1.98;;
38182;SDS011;23991;52.430;10.586;2023-09-19T17:40:10;5.78;;;1.95;;
38182;SDS011;23991;52.430;10.586;2023-09-19T17:42:39;6.30;;;2.58;;
38182;SDS011;23991;52.430;10.586;2023-09-19T17:45:10;5.50;;;2.20;;
38182;SDS011;23991;52.430;10.586;2023-09-19T17:52:32;5.55;;;1.90;;
38182;SDS011;23991;52.430;10.586;2023-09-19T17:54:58;6.40;;;2.17;;
38182;SDS011;23991;52.430;10.586;2023-09-19T17:57:24;5.60;;;2.35;;
38182;SDS011;23991;52.430;10.586;2023-09-19T17:59:50;4.55;;;1.90;;
38182;SDS011;23991;52.430;10.586;2023-09-19T18:02:16;5.18;;;1.92;;
38182;SDS011;23991;52.430;10.586;2023-09-19T18:04:43;5.35;;;2.13;;
38182;SDS011;23991;52.430;10.586;2023-09-19T18:07:08;5.38;;;1.90;;
38182;SDS011;23991;52.430;10.586;2023-09-19T18:09:34;7.28;;;2.47;;
38182;SDS011;23991;52.430;10.586;2023-09-19T18:12:01;4.93;;;2.08;;
38182;SDS011;23991;52.430;10.586;2023-09-19T18:14:30;5.60;;;2.27;;
38182;SDS011;23991;52.430;10.586;2023-09-19T18:16:57;4.72;;;2.30;;
38182;SDS011;23991;52.430;10.586;2023-09-19T18:19:23;5.70;;;2.05;;
38182;SDS011;23991;52.430;10.586;2023-09-19T18:21:49;5.65;;;2.28;;
38182;SDS011;23991;52.430;10.586;2023-09-19T18:24:16;9.40;;;3.05;;
38182;SDS011;23991;52.430;10.586;2023-09-19T18:26:41;6.30;;;2.72;;
38182;SDS011;23991;52.430;10.586;2023-09-19T18:29:08;6.05;;;2.58;;
38182;SDS011;23991;52.430;10.586;2023-09-19T18:31:35;6.95;;;2.53;;
38182;SDS011;23991;52.430;10.586;2023-09-19T18:34:03;5.75;;;2.55;;
38182;SDS011;23991;52.430;10.586;2023-09-19T18:36:29;4.93;;;2.47;;
38182;SDS011;23991;52.430;10.586;2023-09-19T18:38:55;11.00;;;2.72;;
38182;SDS011;23991;52.430;10.586;2023-09-19T18:41:21;6.13;;;2.10;;
38182;SDS011;23991;52.430;10.586;2023-09-19T18:43:48;8.63;;;2.15;;
38182;SDS011;23991;52.430;10.586;2023-09-19T18:46:15;5.15;;;2.20;;
38182;SDS011;23991;52.430;10.586;2023-09-19T18:48:42;7.57;;;2.75;;
38182;SDS011;23991;52.430;10.586;2023-09-19T18:51:13;7.40;;;2.13;;
38182;SDS011;23991;52.430;10.586;2023-09-19T18:53:40;7.95;;;2.58;;
38182;SDS011;23991;52.430;10.586;2023-09-19T18:56:10;5.47;;;2.10;;
38182;SDS011;23991;52.430;10.586;2023-09-19T18:58:42;6.57;;;2.47;;